Terminal Aerodrome Forecast
Issued by NWS St Louis, MO

Home | Current Version | Previous Version | Graphics & Text | Print | Product List | Glossary On
Versions: 1 2 3 4 5 6 7 8 9 10 11 12 13 14 15 16 17
000
FTUS43 KLSX 180500
TAFCOU
TAF
KCOU 180520Z 1806/1906 11007KT P6SM SCT050 SCT250
     FM181400 13005KT P6SM VCSH SCT050 BKN120
     FM181900 13008KT P6SM BKN040
     FM190400 12008KT 6SM -SHRA BKN040=

USA.gov is the U.S. government's official web portal to all federal, state and local government web resources and services.